sensor_id;sensor_type;location;lat;lon;timestamp;P1;durP1;ratioP1;P2;durP2;ratioP2
67278;SDS011;54193;53.746;10.058;2023-02-17T00:02:44;131.10;;;53.87;;
67278;SDS011;54193;53.746;10.058;2023-02-17T00:05:29;118.13;;;45.13;;
67278;SDS011;54193;53.746;10.058;2023-02-17T00:08:15;113.40;;;42.05;;
67278;SDS011;54193;53.746;10.058;2023-02-17T00:11:01;129.35;;;48.72;;
67278;SDS011;54193;53.746;10.058;2023-02-17T00:13:46;117.55;;;43.67;;
67278;SDS011;54193;53.746;10.058;2023-02-17T00:16:32;123.65;;;45.35;;
67278;SDS011;54193;53.746;10.058;2023-02-17T00:19:18;96.78;;;34.55;;
67278;SDS011;54193;53.746;10.058;2023-02-17T00:22:10;132.83;;;48.33;;
67278;SDS011;54193;53.746;10.058;2023-02-17T00:24:55;120.82;;;44.03;;
67278;SDS011;54193;53.746;10.058;2023-02-17T00:27:41;132.65;;;50.85;;
67278;SDS011;54193;53.746;10.058;2023-02-17T00:30:27;122.20;;;44.57;;
67278;SDS011;54193;53.746;10.058;2023-02-17T00:33:13;117.22;;;41.72;;
67278;SDS011;54193;53.746;10.058;2023-02-17T00:36:01;111.43;;;40.72;;
67278;SDS011;54193;53.746;10.058;2023-02-17T00:38:48;110.65;;;39.20;;
67278;SDS011;54193;53.746;10.058;2023-02-17T00:41:34;123.95;;;46.92;;
67278;SDS011;54193;53.746;10.058;2023-02-17T00:44:20;90.22;;;33.50;;
67278;SDS011;54193;53.746;10.058;2023-02-17T00:47:08;122.07;;;43.72;;
67278;SDS011;54193;53.746;10.058;2023-02-17T00:49:53;125.03;;;46.20;;
67278;SDS011;54193;53.746;10.058;2023-02-17T00:52:39;122.97;;;45.72;;
67278;SDS011;54193;53.746;10.058;2023-02-17T00:55:25;136.27;;;51.75;;
67278;SDS011;54193;53.746;10.058;2023-02-17T00:58:10;121.33;;;41.90;;
67278;SDS011;54193;53.746;10.058;2023-02-17T01:00:56;124.20;;;44.28;;
67278;SDS011;54193;53.746;10.058;2023-02-17T01:03:43;125.45;;;46.65;;
67278;SDS011;54193;53.746;10.058;2023-02-17T01:06:30;121.90;;;43.47;;
67278;SDS011;54193;53.746;10.058;2023-02-17T01:09:17;126.93;;;42.85;;
67278;SDS011;54193;53.746;10.058;2023-02-17T01:12:03;123.57;;;42.03;;
67278;SDS011;54193;53.746;10.058;2023-02-17T01:14:49;126.70;;;42.35;;
67278;SDS011;54193;53.746;10.058;2023-02-17T01:17:34;130.60;;;44.00;;
67278;SDS011;54193;53.746;10.058;2023-02-17T01:20:20;118.72;;;37.10;;
67278;SDS011;54193;53.746;10.058;2023-02-17T01:23:06;129.95;;;45.92;;
67278;SDS011;54193;53.746;10.058;2023-02-17T01:25:53;126.67;;;43.47;;
67278;SDS011;54193;53.746;10.058;2023-02-17T01:28:38;115.80;;;40.95;;
67278;SDS011;54193;53.746;10.058;2023-02-17T01:31:24;112.03;;;41.17;;
67278;SDS011;54193;53.746;10.058;2023-02-17T01:34:11;86.63;;;31.10;;
67278;SDS011;54193;53.746;10.058;2023-02-17T01:36:57;122.45;;;41.58;;
67278;SDS011;54193;53.746;10.058;2023-02-17T01:39:42;124.60;;;42.10;;
67278;SDS011;54193;53.746;10.058;2023-02-17T01:42:28;115.43;;;38.75;;
67278;SDS011;54193;53.746;10.058;2023-02-17T01:48:07;103.50;;;34.10;;
67278;SDS011;54193;53.746;10.058;2023-02-17T01:53:51;101.40;;;34.33;;
67278;SDS011;54193;53.746;10.058;2023-02-17T01:56:42;104.82;;;34.47;;
67278;SDS011;54193;53.746;10.058;2023-02-17T01:59:30;106.55;;;35.72;;
67278;SDS011;54193;53.746;10.058;2023-02-17T02:02:17;128.20;;;48.35;;
67278;SDS011;54193;53.746;10.058;2023-02-17T02:05:02;109.07;;;37.13;;
67278;SDS011;54193;53.746;10.058;2023-02-17T02:07:49;95.75;;;31.88;;
67278;SDS011;54193;53.746;10.058;2023-02-17T02:10:36;84.70;;;27.35;;
67278;SDS011;54193;53.746;10.058;2023-02-17T02:13:21;108.50;;;36.23;;
67278;SDS011;54193;53.746;10.058;2023-02-17T02:16:27;86.15;;;27.65;;
67278;SDS011;54193;53.746;10.058;2023-02-17T02:22:22;94.83;;;31.80;;
67278;SDS011;54193;53.746;10.058;2023-02-17T02:28:54;79.45;;;25.95;;
67278;SDS011;54193;53.746;10.058;2023-02-17T02:32:01;90.90;;;31.05;;
67278;SDS011;54193;53.746;10.058;2023-02-17T02:38:08;71.57;;;25.90;;
67278;SDS011;54193;53.746;10.058;2023-02-17T02:41:01;90.60;;;29.83;;
67278;SDS011;54193;53.746;10.058;2023-02-17T02:43:52;84.67;;;28.80;;
67278;SDS011;54193;53.746;10.058;2023-02-17T02:46:38;86.13;;;28.83;;
67278;SDS011;54193;53.746;10.058;2023-02-17T02:49:24;70.63;;;23.80;;
67278;SDS011;54193;53.746;10.058;2023-02-17T02:58:21;71.97;;;24.58;;
67278;SDS011;54193;53.746;10.058;2023-02-17T03:01:19;75.35;;;25.77;;
67278;SDS011;54193;53.746;10.058;2023-02-17T03:07:53;70.50;;;23.23;;
67278;SDS011;54193;53.746;10.058;2023-02-17T03:10:50;79.97;;;24.95;;
67278;SDS011;54193;53.746;10.058;2023-02-17T03:13:37;52.63;;;18.87;;
67278;SDS011;54193;53.746;10.058;2023-02-17T03:16:25;69.15;;;22.77;;
67278;SDS011;54193;53.746;10.058;2023-02-17T03:19:11;73.35;;;23.55;;
67278;SDS011;54193;53.746;10.058;2023-02-17T03:22:00;64.23;;;19.93;;
67278;SDS011;54193;53.746;10.058;2023-02-17T03:24:59;51.97;;;17.75;;
67278;SDS011;54193;53.746;10.058;2023-02-17T03:27:45;51.42;;;17.05;;
67278;SDS011;54193;53.746;10.058;2023-02-17T03:30:31;52.55;;;17.38;;
67278;SDS011;54193;53.746;10.058;2023-02-17T03:33:16;61.08;;;20.25;;
67278;SDS011;54193;53.746;10.058;2023-02-17T03:36:02;59.05;;;19.15;;
67278;SDS011;54193;53.746;10.058;2023-02-17T03:38:48;55.20;;;18.95;;
67278;SDS011;54193;53.746;10.058;2023-02-17T03:41:34;60.20;;;20.70;;
67278;SDS011;54193;53.746;10.058;2023-02-17T03:44:19;59.72;;;19.45;;
67278;SDS011;54193;53.746;10.058;2023-02-17T03:47:05;57.38;;;18.55;;
67278;SDS011;54193;53.746;10.058;2023-02-17T03:49:51;61.23;;;18.90;;
67278;SDS011;54193;53.746;10.058;2023-02-17T03:52:37;52.00;;;16.63;;
67278;SDS011;54193;53.746;10.058;2023-02-17T03:55:22;59.45;;;18.05;;
67278;SDS011;54193;53.746;10.058;2023-02-17T03:58:08;40.92;;;13.73;;
67278;SDS011;54193;53.746;10.058;2023-02-17T04:00:54;58.00;;;18.52;;
67278;SDS011;54193;53.746;10.058;2023-02-17T04:03:40;54.85;;;18.17;;
67278;SDS011;54193;53.746;10.058;2023-02-17T04:06:26;47.97;;;15.10;;
67278;SDS011;54193;53.746;10.058;2023-02-17T04:09:12;51.67;;;16.77;;
67278;SDS011;54193;53.746;10.058;2023-02-17T04:11:57;54.80;;;17.65;;
67278;SDS011;54193;53.746;10.058;2023-02-17T04:14:43;44.55;;;13.93;;
67278;SDS011;54193;53.746;10.058;2023-02-17T04:17:28;52.97;;;16.60;;
67278;SDS011;54193;53.746;10.058;2023-02-17T04:20:14;48.67;;;14.57;;
67278;SDS011;54193;53.746;10.058;2023-02-17T04:23:00;56.20;;;17.70;;
67278;SDS011;54193;53.746;10.058;2023-02-17T04:25:46;49.55;;;16.40;;
67278;SDS011;54193;53.746;10.058;2023-02-17T04:28:32;52.40;;;15.98;;
67278;SDS011;54193;53.746;10.058;2023-02-17T04:31:17;51.00;;;16.80;;
67278;SDS011;54193;53.746;10.058;2023-02-17T04:34:03;60.33;;;18.52;;
67278;SDS011;54193;53.746;10.058;2023-02-17T04:36:49;58.40;;;17.60;;
67278;SDS011;54193;53.746;10.058;2023-02-17T04:39:34;43.22;;;14.98;;
67278;SDS011;54193;53.746;10.058;2023-02-17T04:42:20;44.85;;;14.02;;
67278;SDS011;54193;53.746;10.058;2023-02-17T04:45:06;51.77;;;14.53;;
67278;SDS011;54193;53.746;10.058;2023-02-17T04:47:52;52.78;;;16.90;;
67278;SDS011;54193;53.746;10.058;2023-02-17T04:50:38;48.17;;;14.98;;
67278;SDS011;54193;53.746;10.058;2023-02-17T04:53:24;49.95;;;15.50;;
67278;SDS011;54193;53.746;10.058;2023-02-17T04:56:09;42.78;;;13.65;;
67278;SDS011;54193;53.746;10.058;2023-02-17T04:58:55;43.75;;;14.50;;
67278;SDS011;54193;53.746;10.058;2023-02-17T05:01:40;49.10;;;15.48;;
67278;SDS011;54193;53.746;10.058;2023-02-17T05:04:26;38.33;;;11.77;;
67278;SDS011;54193;53.746;10.058;2023-02-17T05:07:12;49.10;;;14.98;;
67278;SDS011;54193;53.746;10.058;2023-02-17T05:09:57;49.70;;;15.02;;
67278;SDS011;54193;53.746;10.058;2023-02-17T05:12:43;50.23;;;15.17;;
67278;SDS011;54193;53.746;10.058;2023-02-17T05:15:29;37.35;;;12.07;;
67278;SDS011;54193;53.746;10.058;2023-02-17T05:18:14;45.20;;;13.07;;
67278;SDS011;54193;53.746;10.058;2023-02-17T05:21:00;53.83;;;15.70;;
67278;SDS011;54193;53.746;10.058;2023-02-17T05:23:46;50.97;;;15.82;;
67278;SDS011;54193;53.746;10.058;2023-02-17T05:26:31;52.53;;;15.45;;
67278;SDS011;54193;53.746;10.058;2023-02-17T05:29:17;47.72;;;13.90;;
67278;SDS011;54193;53.746;10.058;2023-02-17T05:32:03;45.27;;;13.63;;
67278;SDS011;54193;53.746;10.058;2023-02-17T05:34:48;51.97;;;14.73;;
67278;SDS011;54193;53.746;10.058;2023-02-17T05:37:34;49.28;;;14.18;;
67278;SDS011;54193;53.746;10.058;2023-02-17T05:40:20;42.97;;;12.40;;
67278;SDS011;54193;53.746;10.058;2023-02-17T05:43:06;40.10;;;11.50;;
67278;SDS011;54193;53.746;10.058;2023-02-17T05:45:51;48.25;;;12.65;;
67278;SDS011;54193;53.746;10.058;2023-02-17T05:48:37;54.53;;;14.98;;
67278;SDS011;54193;53.746;10.058;2023-02-17T05:51:23;46.58;;;13.27;;
67278;SDS011;54193;53.746;10.058;2023-02-17T05:54:08;54.63;;;15.18;;
67278;SDS011;54193;53.746;10.058;2023-02-17T05:56:54;57.20;;;16.25;;
67278;SDS011;54193;53.746;10.058;2023-02-17T05:59:40;48.63;;;13.87;;
67278;SDS011;54193;53.746;10.058;2023-02-17T06:02:26;59.50;;;15.60;;
67278;SDS011;54193;53.746;10.058;2023-02-17T06:05:12;64.75;;;19.23;;
67278;SDS011;54193;53.746;10.058;2023-02-17T06:07:57;45.83;;;13.83;;
67278;SDS011;54193;53.746;10.058;2023-02-17T06:10:43;69.78;;;17.42;;
67278;SDS011;54193;53.746;10.058;2023-02-17T06:13:29;56.30;;;14.95;;
67278;SDS011;54193;53.746;10.058;2023-02-17T06:16:14;58.40;;;15.20;;
67278;SDS011;54193;53.746;10.058;2023-02-17T06:19:00;62.15;;;16.92;;
67278;SDS011;54193;53.746;10.058;2023-02-17T06:21:46;60.97;;;15.48;;
67278;SDS011;54193;53.746;10.058;2023-02-17T06:24:32;56.83;;;16.48;;
67278;SDS011;54193;53.746;10.058;2023-02-17T06:27:18;64.10;;;17.57;;
67278;SDS011;54193;53.746;10.058;2023-02-17T06:30:03;68.88;;;20.17;;
67278;SDS011;54193;53.746;10.058;2023-02-17T06:32:50;49.58;;;12.55;;
67278;SDS011;54193;53.746;10.058;2023-02-17T06:35:35;62.77;;;17.10;;
67278;SDS011;54193;53.746;10.058;2023-02-17T06:38:21;57.72;;;15.25;;
67278;SDS011;54193;53.746;10.058;2023-02-17T06:41:07;64.55;;;16.50;;
67278;SDS011;54193;53.746;10.058;2023-02-17T06:43:52;52.55;;;13.90;;
67278;SDS011;54193;53.746;10.058;2023-02-17T06:46:38;57.33;;;14.35;;
67278;SDS011;54193;53.746;10.058;2023-02-17T06:49:24;54.13;;;15.68;;
67278;SDS011;54193;53.746;10.058;2023-02-17T06:52:10;65.13;;;19.35;;
67278;SDS011;54193;53.746;10.058;2023-02-17T06:54:55;59.70;;;15.40;;
67278;SDS011;54193;53.746;10.058;2023-02-17T06:57:42;60.17;;;16.40;;
67278;SDS011;54193;53.746;10.058;2023-02-17T07:00:28;65.80;;;18.50;;
67278;SDS011;54193;53.746;10.058;2023-02-17T07:03:14;69.10;;;20.23;;
67278;SDS011;54193;53.746;10.058;2023-02-17T07:05:59;47.92;;;13.20;;
67278;SDS011;54193;53.746;10.058;2023-02-17T07:08:45;52.50;;;15.75;;
67278;SDS011;54193;53.746;10.058;2023-02-17T07:11:31;58.33;;;16.27;;
67278;SDS011;54193;53.746;10.058;2023-02-17T07:14:17;66.75;;;16.85;;
67278;SDS011;54193;53.746;10.058;2023-02-17T07:17:02;65.00;;;17.92;;
67278;SDS011;54193;53.746;10.058;2023-02-17T07:19:48;70.88;;;20.25;;
67278;SDS011;54193;53.746;10.058;2023-02-17T07:22:35;59.40;;;15.63;;
67278;SDS011;54193;53.746;10.058;2023-02-17T07:25:20;57.65;;;15.77;;
67278;SDS011;54193;53.746;10.058;2023-02-17T07:28:06;53.50;;;16.42;;
67278;SDS011;54193;53.746;10.058;2023-02-17T07:30:52;48.60;;;15.63;;
67278;SDS011;54193;53.746;10.058;2023-02-17T07:33:38;52.38;;;16.05;;
67278;SDS011;54193;53.746;10.058;2023-02-17T07:36:24;59.58;;;16.98;;
67278;SDS011;54193;53.746;10.058;2023-02-17T07:39:10;54.17;;;16.45;;
67278;SDS011;54193;53.746;10.058;2023-02-17T07:41:56;55.38;;;16.25;;
67278;SDS011;54193;53.746;10.058;2023-02-17T07:44:45;48.63;;;14.55;;
67278;SDS011;54193;53.746;10.058;2023-02-17T07:47:31;55.97;;;18.30;;
67278;SDS011;54193;53.746;10.058;2023-02-17T07:50:17;58.07;;;16.07;;
67278;SDS011;54193;53.746;10.058;2023-02-17T07:53:03;70.82;;;20.70;;
67278;SDS011;54193;53.746;10.058;2023-02-17T07:55:49;53.03;;;17.83;;
67278;SDS011;54193;53.746;10.058;2023-02-17T07:58:35;68.40;;;20.50;;
67278;SDS011;54193;53.746;10.058;2023-02-17T08:01:23;70.97;;;21.33;;
67278;SDS011;54193;53.746;10.058;2023-02-17T08:04:09;63.25;;;20.05;;
67278;SDS011;54193;53.746;10.058;2023-02-17T08:06:55;58.28;;;19.10;;
67278;SDS011;54193;53.746;10.058;2023-02-17T08:09:40;59.38;;;18.58;;
67278;SDS011;54193;53.746;10.058;2023-02-17T08:12:45;55.95;;;18.10;;
67278;SDS011;54193;53.746;10.058;2023-02-17T08:15:49;50.17;;;15.45;;
67278;SDS011;54193;53.746;10.058;2023-02-17T08:18:34;55.70;;;15.00;;
67278;SDS011;54193;53.746;10.058;2023-02-17T08:21:24;53.28;;;13.45;;
67278;SDS011;54193;53.746;10.058;2023-02-17T08:24:10;48.67;;;12.63;;
67278;SDS011;54193;53.746;10.058;2023-02-17T08:26:57;43.23;;;12.63;;
67278;SDS011;54193;53.746;10.058;2023-02-17T08:29:43;42.25;;;10.60;;
67278;SDS011;54193;53.746;10.058;2023-02-17T08:32:29;49.08;;;14.20;;
67278;SDS011;54193;53.746;10.058;2023-02-17T08:35:15;45.85;;;14.13;;
67278;SDS011;54193;53.746;10.058;2023-02-17T08:38:03;53.58;;;18.27;;
67278;SDS011;54193;53.746;10.058;2023-02-17T08:40:49;52.22;;;15.02;;
67278;SDS011;54193;53.746;10.058;2023-02-17T08:43:35;43.97;;;12.70;;
67278;SDS011;54193;53.746;10.058;2023-02-17T08:46:20;35.23;;;9.93;;
67278;SDS011;54193;53.746;10.058;2023-02-17T08:49:06;31.77;;;9.55;;
67278;SDS011;54193;53.746;10.058;2023-02-17T08:51:52;35.33;;;9.45;;
67278;SDS011;54193;53.746;10.058;2023-02-17T08:54:38;42.30;;;11.83;;
67278;SDS011;54193;53.746;10.058;2023-02-17T08:57:24;38.90;;;9.98;;
67278;SDS011;54193;53.746;10.058;2023-02-17T09:00:10;44.25;;;13.48;;
67278;SDS011;54193;53.746;10.058;2023-02-17T09:02:57;34.05;;;8.48;;
67278;SDS011;54193;53.746;10.058;2023-02-17T09:05:43;34.28;;;8.10;;
67278;SDS011;54193;53.746;10.058;2023-02-17T09:08:29;31.60;;;9.98;;
67278;SDS011;54193;53.746;10.058;2023-02-17T09:11:15;27.42;;;9.32;;
67278;SDS011;54193;53.746;10.058;2023-02-17T09:14:01;36.40;;;10.83;;
67278;SDS011;54193;53.746;10.058;2023-02-17T09:16:47;29.77;;;8.48;;
67278;SDS011;54193;53.746;10.058;2023-02-17T09:19:36;41.50;;;13.10;;
67278;SDS011;54193;53.746;10.058;2023-02-17T09:22:22;36.03;;;11.03;;
67278;SDS011;54193;53.746;10.058;2023-02-17T09:25:08;22.85;;;8.90;;
67278;SDS011;54193;53.746;10.058;2023-02-17T09:27:54;35.03;;;11.43;;
67278;SDS011;54193;53.746;10.058;2023-02-17T09:30:40;31.58;;;9.18;;
67278;SDS011;54193;53.746;10.058;2023-02-17T09:33:25;29.05;;;8.93;;
67278;SDS011;54193;53.746;10.058;2023-02-17T09:36:12;30.10;;;8.52;;
67278;SDS011;54193;53.746;10.058;2023-02-17T09:38:59;27.48;;;8.38;;
67278;SDS011;54193;53.746;10.058;2023-02-17T09:41:47;28.30;;;7.03;;
67278;SDS011;54193;53.746;10.058;2023-02-17T09:44:40;27.50;;;8.48;;
67278;SDS011;54193;53.746;10.058;2023-02-17T09:47:33;27.80;;;8.05;;
67278;SDS011;54193;53.746;10.058;2023-02-17T09:50:26;28.53;;;8.40;;
67278;SDS011;54193;53.746;10.058;2023-02-17T09:53:20;28.63;;;8.45;;
67278;SDS011;54193;53.746;10.058;2023-02-17T09:56:27;23.67;;;7.95;;
67278;SDS011;54193;53.746;10.058;2023-02-17T09:59:19;28.73;;;8.00;;
67278;SDS011;54193;53.746;10.058;2023-02-17T10:02:24;25.00;;;7.05;;
67278;SDS011;54193;53.746;10.058;2023-02-17T10:05:19;28.63;;;8.48;;
67278;SDS011;54193;53.746;10.058;2023-02-17T10:08:18;22.15;;;7.00;;
67278;SDS011;54193;53.746;10.058;2023-02-17T10:11:14;22.10;;;7.30;;
67278;SDS011;54193;53.746;10.058;2023-02-17T10:14:20;26.52;;;7.75;;
67278;SDS011;54193;53.746;10.058;2023-02-17T10:23:06;26.83;;;7.80;;
67278;SDS011;54193;53.746;10.058;2023-02-17T10:32:25;29.40;;;8.73;;
67278;SDS011;54193;53.746;10.058;2023-02-17T10:35:12;26.02;;;8.85;;
67278;SDS011;54193;53.746;10.058;2023-02-17T10:41:07;27.97;;;8.80;;
67278;SDS011;54193;53.746;10.058;2023-02-17T10:43:58;31.52;;;8.32;;
67278;SDS011;54193;53.746;10.058;2023-02-17T10:46:46;26.63;;;7.93;;
67278;SDS011;54193;53.746;10.058;2023-02-17T10:49:34;27.63;;;8.13;;
67278;SDS011;54193;53.746;10.058;2023-02-17T10:52:26;28.55;;;8.30;;
67278;SDS011;54193;53.746;10.058;2023-02-17T10:55:30;29.35;;;8.82;;
67278;SDS011;54193;53.746;10.058;2023-02-17T10:58:28;29.13;;;7.25;;
67278;SDS011;54193;53.746;10.058;2023-02-17T11:01:18;29.38;;;7.22;;
67278;SDS011;54193;53.746;10.058;2023-02-17T11:04:06;29.00;;;8.98;;
67278;SDS011;54193;53.746;10.058;2023-02-17T11:06:53;32.33;;;8.35;;
67278;SDS011;54193;53.746;10.058;2023-02-17T11:09:44;24.30;;;6.23;;
67278;SDS011;54193;53.746;10.058;2023-02-17T11:12:33;29.02;;;8.57;;
67278;SDS011;54193;53.746;10.058;2023-02-17T11:15:26;23.60;;;6.23;;
67278;SDS011;54193;53.746;10.058;2023-02-17T11:18:19;27.88;;;9.23;;
67278;SDS011;54193;53.746;10.058;2023-02-17T11:21:10;29.73;;;9.88;;
67278;SDS011;54193;53.746;10.058;2023-02-17T11:24:14;27.15;;;7.80;;
67278;SDS011;54193;53.746;10.058;2023-02-17T11:27:00;32.22;;;11.57;;
67278;SDS011;54193;53.746;10.058;2023-02-17T11:29:47;29.38;;;10.43;;
67278;SDS011;54193;53.746;10.058;2023-02-17T11:32:33;32.75;;;10.70;;
67278;SDS011;54193;53.746;10.058;2023-02-17T11:35:25;24.77;;;9.53;;
67278;SDS011;54193;53.746;10.058;2023-02-17T11:38:47;22.77;;;7.78;;
67278;SDS011;54193;53.746;10.058;2023-02-17T11:41:39;31.40;;;8.77;;
67278;SDS011;54193;53.746;10.058;2023-02-17T11:44:25;31.23;;;11.00;;
67278;SDS011;54193;53.746;10.058;2023-02-17T11:50:55;32.67;;;8.07;;
67278;SDS011;54193;53.746;10.058;2023-02-17T11:57:12;26.98;;;8.35;;
67278;SDS011;54193;53.746;10.058;2023-02-17T12:06:12;31.87;;;9.57;;
67278;SDS011;54193;53.746;10.058;2023-02-17T12:09:05;28.38;;;8.77;;
67278;SDS011;54193;53.746;10.058;2023-02-17T12:12:05;25.67;;;9.02;;
67278;SDS011;54193;53.746;10.058;2023-02-17T12:24:57;30.63;;;7.63;;
67278;SDS011;54193;53.746;10.058;2023-02-17T12:31:26;27.08;;;8.90;;
67278;SDS011;54193;53.746;10.058;2023-02-17T12:34:30;23.55;;;8.82;;
67278;SDS011;54193;53.746;10.058;2023-02-17T12:37:24;27.90;;;8.40;;
67278;SDS011;54193;53.746;10.058;2023-02-17T12:43:28;21.42;;;7.18;;
67278;SDS011;54193;53.746;10.058;2023-02-17T12:46:24;18.23;;;6.37;;
67278;SDS011;54193;53.746;10.058;2023-02-17T12:52:26;16.05;;;5.93;;
67278;SDS011;54193;53.746;10.058;2023-02-17T12:55:21;21.77;;;7.90;;
67278;SDS011;54193;53.746;10.058;2023-02-17T12:58:15;19.35;;;7.40;;
67278;SDS011;54193;53.746;10.058;2023-02-17T13:01:12;23.23;;;8.50;;
67278;SDS011;54193;53.746;10.058;2023-02-17T13:04:02;23.52;;;7.75;;
67278;SDS011;54193;53.746;10.058;2023-02-17T13:06:51;18.43;;;7.47;;
67278;SDS011;54193;53.746;10.058;2023-02-17T13:09:44;25.48;;;8.30;;
67278;SDS011;54193;53.746;10.058;2023-02-17T13:12:33;22.17;;;7.25;;
67278;SDS011;54193;53.746;10.058;2023-02-17T13:15:59;22.83;;;8.03;;
67278;SDS011;54193;53.746;10.058;2023-02-17T13:18:45;22.67;;;6.82;;
67278;SDS011;54193;53.746;10.058;2023-02-17T13:21:33;19.27;;;7.07;;
67278;SDS011;54193;53.746;10.058;2023-02-17T13:24:32;21.95;;;7.22;;
67278;SDS011;54193;53.746;10.058;2023-02-17T13:33:25;17.33;;;6.65;;
67278;SDS011;54193;53.746;10.058;2023-02-17T13:36:11;22.88;;;7.10;;
67278;SDS011;54193;53.746;10.058;2023-02-17T13:48:12;15.40;;;5.47;;
67278;SDS011;54193;53.746;10.058;2023-02-17T13:51:04;15.17;;;5.63;;
67278;SDS011;54193;53.746;10.058;2023-02-17T13:53:51;16.90;;;5.75;;
67278;SDS011;54193;53.746;10.058;2023-02-17T13:56:37;15.18;;;5.18;;
67278;SDS011;54193;53.746;10.058;2023-02-17T13:59:24;14.48;;;4.95;;
67278;SDS011;54193;53.746;10.058;2023-02-17T14:02:18;12.48;;;5.03;;
67278;SDS011;54193;53.746;10.058;2023-02-17T14:05:10;9.68;;;3.65;;
67278;SDS011;54193;53.746;10.058;2023-02-17T14:11:25;10.33;;;3.70;;
67278;SDS011;54193;53.746;10.058;2023-02-17T14:14:13;9.45;;;3.30;;
67278;SDS011;54193;53.746;10.058;2023-02-17T14:17:00;10.27;;;2.83;;
67278;SDS011;54193;53.746;10.058;2023-02-17T14:19:48;9.47;;;2.90;;
67278;SDS011;54193;53.746;10.058;2023-02-17T14:22:34;7.93;;;2.00;;
67278;SDS011;54193;53.746;10.058;2023-02-17T14:25:26;8.80;;;2.10;;
67278;SDS011;54193;53.746;10.058;2023-02-17T14:28:20;6.80;;;1.88;;
67278;SDS011;54193;53.746;10.058;2023-02-17T14:31:11;8.77;;;2.38;;
67278;SDS011;54193;53.746;10.058;2023-02-17T14:34:04;8.52;;;2.03;;
67278;SDS011;54193;53.746;10.058;2023-02-17T14:36:50;9.60;;;1.90;;
67278;SDS011;54193;53.746;10.058;2023-02-17T14:39:36;8.87;;;1.93;;
67278;SDS011;54193;53.746;10.058;2023-02-17T14:42:22;10.90;;;2.40;;
67278;SDS011;54193;53.746;10.058;2023-02-17T14:45:07;12.55;;;2.70;;
67278;SDS011;54193;53.746;10.058;2023-02-17T14:47:53;13.30;;;3.83;;
67278;SDS011;54193;53.746;10.058;2023-02-17T14:50:41;14.30;;;2.35;;
67278;SDS011;54193;53.746;10.058;2023-02-17T14:53:29;10.18;;;1.95;;
67278;SDS011;54193;53.746;10.058;2023-02-17T14:59:14;12.88;;;2.70;;
67278;SDS011;54193;53.746;10.058;2023-02-17T15:02:00;15.98;;;3.05;;
67278;SDS011;54193;53.746;10.058;2023-02-17T15:04:45;16.35;;;2.85;;
67278;SDS011;54193;53.746;10.058;2023-02-17T15:07:31;22.57;;;2.80;;
67278;SDS011;54193;53.746;10.058;2023-02-17T15:10:18;10.38;;;2.20;;
67278;SDS011;54193;53.746;10.058;2023-02-17T15:13:12;12.68;;;2.50;;
67278;SDS011;54193;53.746;10.058;2023-02-17T15:15:59;14.77;;;2.70;;
67278;SDS011;54193;53.746;10.058;2023-02-17T15:18:45;14.60;;;3.25;;
67278;SDS011;54193;53.746;10.058;2023-02-17T15:21:31;18.92;;;2.97;;
67278;SDS011;54193;53.746;10.058;2023-02-17T15:24:19;18.53;;;3.97;;
67278;SDS011;54193;53.746;10.058;2023-02-17T15:27:13;13.93;;;3.45;;
67278;SDS011;54193;53.746;10.058;2023-02-17T15:30:01;19.95;;;3.75;;
67278;SDS011;54193;53.746;10.058;2023-02-17T15:32:46;16.23;;;2.92;;
67278;SDS011;54193;53.746;10.058;2023-02-17T15:35:32;12.95;;;2.35;;
67278;SDS011;54193;53.746;10.058;2023-02-17T15:38:18;20.35;;;3.22;;
67278;SDS011;54193;53.746;10.058;2023-02-17T15:41:04;19.88;;;3.63;;
67278;SDS011;54193;53.746;10.058;2023-02-17T15:44:05;15.27;;;3.57;;
67278;SDS011;54193;53.746;10.058;2023-02-17T15:46:56;29.13;;;4.40;;
67278;SDS011;54193;53.746;10.058;2023-02-17T15:49:42;22.83;;;4.00;;
67278;SDS011;54193;53.746;10.058;2023-02-17T15:52:28;18.07;;;3.63;;
67278;SDS011;54193;53.746;10.058;2023-02-17T15:55:14;21.48;;;3.10;;
67278;SDS011;54193;53.746;10.058;2023-02-17T15:58:01;22.80;;;3.50;;
67278;SDS011;54193;53.746;10.058;2023-02-17T16:00:48;15.50;;;2.95;;
67278;SDS011;54193;53.746;10.058;2023-02-17T16:03:35;20.00;;;3.75;;
67278;SDS011;54193;53.746;10.058;2023-02-17T16:06:20;21.30;;;3.67;;
67278;SDS011;54193;53.746;10.058;2023-02-17T16:09:06;18.42;;;2.80;;
67278;SDS011;54193;53.746;10.058;2023-02-17T16:11:52;16.27;;;3.23;;
67278;SDS011;54193;53.746;10.058;2023-02-17T16:14:38;10.93;;;2.22;;
67278;SDS011;54193;53.746;10.058;2023-02-17T16:17:24;19.25;;;2.70;;
67278;SDS011;54193;53.746;10.058;2023-02-17T16:20:15;22.43;;;3.53;;
67278;SDS011;54193;53.746;10.058;2023-02-17T16:23:16;12.00;;;2.17;;
67278;SDS011;54193;53.746;10.058;2023-02-17T16:26:02;10.82;;;2.33;;
67278;SDS011;54193;53.746;10.058;2023-02-17T16:28:48;10.63;;;2.03;;
67278;SDS011;54193;53.746;10.058;2023-02-17T16:31:34;15.20;;;2.72;;
67278;SDS011;54193;53.746;10.058;2023-02-17T16:34:21;16.33;;;2.45;;
67278;SDS011;54193;53.746;10.058;2023-02-17T16:37:12;12.57;;;2.00;;
67278;SDS011;54193;53.746;10.058;2023-02-17T16:40:00;19.93;;;2.77;;
67278;SDS011;54193;53.746;10.058;2023-02-17T16:42:45;16.63;;;2.50;;
67278;SDS011;54193;53.746;10.058;2023-02-17T16:45:31;32.05;;;3.33;;
67278;SDS011;54193;53.746;10.058;2023-02-17T16:48:18;23.87;;;3.03;;
67278;SDS011;54193;53.746;10.058;2023-02-17T16:51:06;11.45;;;2.00;;
67278;SDS011;54193;53.746;10.058;2023-02-17T16:53:51;12.45;;;2.08;;
67278;SDS011;54193;53.746;10.058;2023-02-17T16:56:42;14.38;;;2.30;;
67278;SDS011;54193;53.746;10.058;2023-02-17T16:59:29;15.40;;;2.47;;
67278;SDS011;54193;53.746;10.058;2023-02-17T17:02:15;15.13;;;2.75;;
67278;SDS011;54193;53.746;10.058;2023-02-17T17:05:01;11.25;;;2.03;;
67278;SDS011;54193;53.746;10.058;2023-02-17T17:07:47;13.73;;;2.50;;
67278;SDS011;54193;53.746;10.058;2023-02-17T17:10:35;13.35;;;2.47;;
67278;SDS011;54193;53.746;10.058;2023-02-17T17:13:24;13.65;;;2.58;;
67278;SDS011;54193;53.746;10.058;2023-02-17T17:16:14;10.80;;;2.23;;
67278;SDS011;54193;53.746;10.058;2023-02-17T17:19:03;11.32;;;2.10;;
67278;SDS011;54193;53.746;10.058;2023-02-17T17:21:48;13.35;;;2.45;;
67278;SDS011;54193;53.746;10.058;2023-02-17T17:24:34;16.85;;;2.47;;
67278;SDS011;54193;53.746;10.058;2023-02-17T17:27:20;11.77;;;2.33;;
67278;SDS011;54193;53.746;10.058;2023-02-17T17:30:05;10.25;;;1.42;;
67278;SDS011;54193;53.746;10.058;2023-02-17T17:32:53;17.52;;;2.88;;
67278;SDS011;54193;53.746;10.058;2023-02-17T17:35:39;15.07;;;2.40;;
67278;SDS011;54193;53.746;10.058;2023-02-17T17:38:24;13.95;;;2.45;;
67278;SDS011;54193;53.746;10.058;2023-02-17T17:41:11;14.00;;;2.03;;
67278;SDS011;54193;53.746;10.058;2023-02-17T17:43:57;14.20;;;2.23;;
67278;SDS011;54193;53.746;10.058;2023-02-17T17:46:43;16.27;;;2.38;;
67278;SDS011;54193;53.746;10.058;2023-02-17T17:49:29;17.52;;;3.05;;
67278;SDS011;54193;53.746;10.058;2023-02-17T17:52:15;11.10;;;1.88;;